Time;durP1;ratioP1;P1;durP2;ratioP2;P2;SDS_P1;SDS_P2;PMS_P1;PMS_P2;Temp;Humidity;BMP_temperature;BMP_pressure;BME280_temperature;BME280_humidity;BME280_pressure;Samples;Min_cycle;Max_cycle;Signal;HPM_P1;HPM_P2
2022/03/23 00:01:43;;;;;;;15.77;11.23;;;8.50;99.90;;;;;;5058241;27;20199;-46
2022/03/23 00:04:10;;;;;;;18.97;11.70;;;8.50;99.90;;;;;;5091617;27;20226;-45
2022/03/23 00:06:38;;;;;;;19.03;11.70;;;8.40;99.90;;;;;;5061499;27;20692;-45
2022/03/23 00:09:05;;;;;;;18.43;12.87;;;8.30;99.90;;;;;;5081930;27;20199;-45
2022/03/23 00:11:33;;;;;;;19.47;12.13;;;8.20;99.90;;;;;;5077028;28;20203;-46
2022/03/23 00:14:00;;;;;;;19.07;12.40;;;8.00;99.90;;;;;;5056186;28;20230;-45
2022/03/23 00:16:27;;;;;;;22.17;12.10;;;7.90;99.90;;;;;;5068362;28;20243;-46
2022/03/23 00:18:55;;;;;;;19.67;12.13;;;7.90;99.90;;;;;;5078979;28;20278;-45
2022/03/23 00:21:22;;;;;;;20.40;12.13;;;8.00;99.90;;;;;;5056039;28;20218;-46
2022/03/23 00:23:49;;;;;;;19.47;11.77;;;8.10;99.90;;;;;;5075312;28;20227;-46
2022/03/23 00:26:15;;;;;;;20.33;11.90;;;8.00;99.90;;;;;;5089817;28;20204;-46
2022/03/23 00:28:42;;;;;;;18.00;11.60;;;8.00;99.90;;;;;;5070253;27;20234;-45
2022/03/23 00:31:09;;;;;;;19.23;12.03;;;8.00;99.90;;;;;;5087700;28;20275;-45
2022/03/23 00:33:36;;;;;;;18.90;11.37;;;8.10;99.90;;;;;;5057593;28;21455;-45
2022/03/23 00:36:06;;;;;;;16.17;11.20;;;8.00;99.90;;;;;;5056423;28;20207;-45
2022/03/23 00:38:34;;;;;;;16.30;11.10;;;8.00;99.90;;;;;;5088938;27;20263;-45
2022/03/23 00:41:03;;;;;;;17.13;11.50;;;8.00;99.90;;;;;;5081577;28;20231;-44
2022/03/23 00:43:30;;;;;;;17.23;10.63;;;7.90;99.90;;;;;;5062621;28;20219;-44
2022/03/23 00:45:57;;;;;;;20.77;10.60;;;7.90;99.90;;;;;;5073163;28;20314;-46
2022/03/23 00:48:24;;;;;;;14.50;11.40;;;7.80;99.90;;;;;;5066891;28;20575;-46
2022/03/23 00:50:51;;;;;;;17.50;12.03;;;7.70;99.90;;;;;;5070506;28;20282;-46
2022/03/23 00:53:19;;;;;;;19.37;11.47;;;7.60;99.90;;;;;;5088156;28;20252;-46
2022/03/23 00:55:46;;;;;;;19.83;11.70;;;7.50;99.90;;;;;;5075290;28;20204;-46
2022/03/23 00:58:13;;;;;;;18.40;10.90;;;7.50;99.90;;;;;;5079310;28;20214;-45
2022/03/23 01:00:41;;;;;;;18.17;10.33;;;7.50;99.90;;;;;;5064701;28;20503;-46
2022/03/23 01:03:09;;;;;;;21.73;11.10;;;7.50;99.90;;;;;;5069897;28;20215;-45
2022/03/23 01:05:36;;;;;;;18.93;11.13;;;7.50;99.90;;;;;;5089820;28;20254;-44
2022/03/23 01:08:04;;;;;;;17.83;11.30;;;7.60;99.90;;;;;;5069044;28;20199;-46
2022/03/23 01:10:34;;;;;;;17.57;10.43;;;7.70;99.90;;;;;;5091350;28;20204;-45
2022/03/23 01:13:01;;;;;;;16.60;10.27;;;7.70;99.90;;;;;;5060674;28;20223;-45
2022/03/23 01:15:29;;;;;;;16.57;11.73;;;7.70;99.90;;;;;;5070247;28;20405;-44
2022/03/23 01:17:56;;;;;;;17.93;11.23;;;7.50;99.90;;;;;;5055242;28;20215;-45
2022/03/23 01:20:24;;;;;;;15.80;10.23;;;7.60;99.90;;;;;;5078128;28;20477;-45
2022/03/23 01:22:51;;;;;;;17.80;11.13;;;7.60;99.90;;;;;;5078174;28;20227;-45
2022/03/23 01:25:19;;;;;;;15.10;10.10;;;7.50;99.90;;;;;;5077580;28;20309;-46
2022/03/23 01:27:48;;;;;;;17.20;11.30;;;7.40;99.90;;;;;;5075965;28;20253;-45
2022/03/23 01:30:16;;;;;;;17.23;10.57;;;7.40;99.90;;;;;;5082292;28;20203;-46
2022/03/23 01:32:44;;;;;;;15.53;10.67;;;7.40;99.90;;;;;;5088424;27;21169;-46
2022/03/23 01:35:12;;;;;;;16.57;11.47;;;7.40;99.90;;;;;;5063797;28;20403;-45
2022/03/23 01:37:39;;;;;;;20.10;11.47;;;7.40;99.90;;;;;;5061480;27;20207;-50
2022/03/23 01:40:08;;;;;;;15.20;11.07;;;7.30;99.90;;;;;;5085143;27;20222;-45
2022/03/23 01:42:35;;;;;;;19.07;10.80;;;7.30;99.90;;;;;;5083820;28;20227;-48
2022/03/23 01:45:04;;;;;;;17.60;10.73;;;7.20;99.90;;;;;;5096270;28;20223;-46
2022/03/23 01:47:31;;;;;;;22.70;11.33;;;7.10;99.90;;;;;;5079174;27;20208;-49
2022/03/23 01:49:59;;;;;;;18.00;10.67;;;7.00;99.90;;;;;;5076619;28;20968;-44
2022/03/23 01:52:30;;;;;;;15.40;10.47;;;7.00;99.90;;;;;;5070581;27;20207;-48
2022/03/23 01:54:57;;;;;;;15.47;11.23;;;6.80;99.90;;;;;;5077884;27;20203;-47
2022/03/23 01:57:25;;;;;;;18.67;11.50;;;6.60;99.90;;;;;;5086850;28;20282;-49
2022/03/23 01:59:52;;;;;;;18.67;12.90;;;6.30;99.90;;;;;;5063621;27;20286;-47
2022/03/23 02:02:20;;;;;;;17.57;12.00;;;6.20;99.90;;;;;;5083021;28;20647;-44
2022/03/23 02:04:47;;;;;;;17.97;11.40;;;6.10;99.90;;;;;;5072298;28;21166;-44
2022/03/23 02:07:15;;;;;;;19.33;12.27;;;6.00;99.90;;;;;;5076442;27;20304;-45
2022/03/23 02:09:42;;;;;;;18.97;13.77;;;5.90;99.90;;;;;;5057133;27;20215;-47
2022/03/23 02:12:10;;;;;;;21.37;12.33;;;5.80;99.90;;;;;;5090613;28;20546;-49
2022/03/23 02:14:37;;;;;;;19.13;12.20;;;5.70;99.90;;;;;;5071564;27;20328;-48
2022/03/23 02:17:05;;;;;;;22.10;12.67;;;5.60;99.90;;;;;;5079893;27;20453;-43
2022/03/23 02:19:33;;;;;;;19.40;13.00;;;5.70;99.90;;;;;;5090836;28;20298;-43
2022/03/23 02:22:02;;;;;;;19.47;12.33;;;5.50;99.90;;;;;;5072132;28;20254;-45
2022/03/23 02:24:30;;;;;;;20.20;12.37;;;5.40;99.90;;;;;;5076157;27;20297;-48
2022/03/23 02:26:58;;;;;;;19.97;11.77;;;5.40;99.90;;;;;;5087140;28;20196;-49
2022/03/23 02:29:29;;;;;;;18.87;11.97;;;5.40;99.90;;;;;;5059049;28;20214;-46
2022/03/23 02:31:57;;;;;;;19.07;12.10;;;5.30;99.90;;;;;;5085270;28;20546;-45
2022/03/23 02:34:25;;;;;;;17.20;11.30;;;5.40;99.90;;;;;;5076522;28;20231;-48
2022/03/23 02:36:52;;;;;;;18.20;12.23;;;5.40;99.90;;;;;;5074691;28;20212;-45
2022/03/23 02:39:21;;;;;;;26.80;11.73;;;5.60;99.90;;;;;;5065475;28;20283;-49
2022/03/23 02:41:48;;;;;;;20.50;12.27;;;5.70;99.90;;;;;;5089131;28;20518;-44
2022/03/23 02:44:15;;;;;;;15.77;12.17;;;5.90;99.90;;;;;;5078136;27;20288;-48
2022/03/23 02:46:42;;;;;;;19.13;12.07;;;5.90;99.90;;;;;;5083695;28;20470;-45
2022/03/23 02:49:10;;;;;;;19.73;12.87;;;5.80;99.90;;;;;;5063282;27;20213;-45
2022/03/23 02:51:37;;;;;;;19.87;12.90;;;5.90;99.90;;;;;;5070164;28;21382;-44
2022/03/23 03:02:36;;;;;;;18.30;12.07;;;6.00;99.90;;;;;;5037979;27;20363;-44
2022/03/23 03:05:04;;;;;;;18.43;12.00;;;5.80;99.90;;;;;;5080297;27;20220;-43
2022/03/23 03:08:44;;;;;;;21.10;12.37;;;5.70;99.90;;;;;;5067602;27;20221;-42
2022/03/23 03:10:19;;;;;;;18.13;13.83;;;5.70;99.90;;;;;;5071822;28;20211;-46
2022/03/23 03:12:47;;;;;;;20.50;13.50;;;5.40;99.90;;;;;;5096397;27;20683;-46
2022/03/23 03:15:15;;;;;;;19.83;12.77;;;5.30;99.90;;;;;;5073099;27;20204;-48
2022/03/23 03:17:42;;;;;;;19.30;13.27;;;5.20;99.90;;;;;;5085208;27;20606;-45
2022/03/23 03:20:10;;;;;;;19.93;12.30;;;5.00;99.90;;;;;;5090418;28;20207;-49
2022/03/23 03:22:39;;;;;;;16.57;11.07;;;4.90;99.90;;;;;;5065907;27;20702;-42
2022/03/23 03:25:07;;;;;;;16.63;11.60;;;4.80;99.90;;;;;;5088948;28;22984;-47
2022/03/23 03:27:35;;;;;;;21.70;12.87;;;4.70;99.90;;;;;;5077073;28;20630;-44
2022/03/23 03:30:04;;;;;;;21.30;12.73;;;4.70;99.90;;;;;;5072012;27;20744;-43
2022/03/23 03:32:31;;;;;;;16.83;11.30;;;4.70;99.90;;;;;;5075210;28;20283;-45
2022/03/23 03:34:58;;;;;;;22.37;12.97;;;4.60;99.90;;;;;;5091230;28;20322;-46
2022/03/23 03:37:25;;;;;;;23.70;13.23;;;4.60;99.90;;;;;;5079075;28;20702;-46
2022/03/23 03:39:52;;;;;;;22.37;12.63;;;4.50;99.90;;;;;;5075145;27;20212;-45
2022/03/23 03:42:20;;;;;;;18.17;11.70;;;4.40;99.90;;;;;;5074273;28;20232;-45
2022/03/23 03:44:50;;;;;;;18.63;11.57;;;4.40;99.90;;;;;;5092768;28;20498;-44
2022/03/23 03:47:19;;;;;;;18.80;11.87;;;4.40;99.90;;;;;;5060225;28;20252;-47
2022/03/23 03:49:47;;;;;;;19.57;11.90;;;4.60;99.90;;;;;;5089612;27;20302;-43
2022/03/23 03:52:14;;;;;;;17.30;11.67;;;4.60;99.90;;;;;;5076713;28;20212;-47
2022/03/23 03:54:40;;;;;;;21.03;13.17;;;4.60;99.90;;;;;;5075195;28;20280;-46
2022/03/23 03:57:07;;;;;;;17.17;11.87;;;4.70;99.90;;;;;;5074343;27;20281;-48
2022/03/23 03:59:35;;;;;;;24.70;13.50;;;4.80;99.90;;;;;;5089886;28;20352;-44
2022/03/23 04:02:02;;;;;;;17.00;12.33;;;5.10;99.90;;;;;;5080907;27;20208;-44
2022/03/23 04:04:30;;;;;;;18.33;11.97;;;5.30;99.90;;;;;;5060126;28;20351;-44
2022/03/23 04:06:57;;;;;;;19.43;12.87;;;5.30;99.90;;;;;;5081532;27;20229;-44
2022/03/23 04:09:24;;;;;;;19.77;12.00;;;5.40;99.90;;;;;;5071964;28;20676;-45
2022/03/23 04:11:51;;;;;;;19.83;12.03;;;5.40;99.90;;;;;;5075764;28;20211;-44
2022/03/23 04:14:18;;;;;;;19.63;13.27;;;5.40;99.90;;;;;;5072168;28;20227;-45
2022/03/23 04:16:45;;;;;;;17.97;11.67;;;5.50;99.90;;;;;;5077245;28;20417;-44
2022/03/23 04:19:12;;;;;;;20.13;12.37;;;5.40;99.90;;;;;;5079016;27;20231;-45
2022/03/23 04:21:40;;;;;;;17.33;11.70;;;5.50;99.90;;;;;;5072274;27;20314;-44
2022/03/23 04:24:07;;;;;;;17.73;11.33;;;5.40;99.90;;;;;;5077941;27;20236;-45
2022/03/23 04:26:34;;;;;;;19.03;11.80;;;5.40;99.90;;;;;;5055665;27;20220;-45
2022/03/23 04:29:01;;;;;;;19.10;12.93;;;5.40;99.90;;;;;;5088011;28;20208;-44
2022/03/23 04:31:28;;;;;;;20.57;12.03;;;5.40;99.90;;;;;;5069906;28;20585;-44
2022/03/23 04:33:55;;;;;;;17.97;12.40;;;5.20;99.90;;;;;;5081973;28;20243;-44
2022/03/23 04:36:22;;;;;;;16.47;11.90;;;5.30;99.90;;;;;;5082400;28;20213;-45
2022/03/23 04:38:51;;;;;;;16.33;11.23;;;5.10;99.90;;;;;;5076942;28;20507;-43
2022/03/23 04:41:17;;;;;;;16.73;11.43;;;5.00;99.90;;;;;;5058664;28;20399;-44
2022/03/23 04:43:44;;;;;;;18.10;11.80;;;4.90;99.90;;;;;;5074474;28;20305;-44
2022/03/23 04:46:11;;;;;;;20.73;11.43;;;4.70;99.90;;;;;;5089770;28;20562;-45
2022/03/23 04:48:38;;;;;;;17.93;11.67;;;4.70;99.90;;;;;;5070850;28;20298;-45
2022/03/23 04:51:05;;;;;;;18.83;11.43;;;4.60;99.90;;;;;;5071246;27;20205;-44
2022/03/23 04:53:32;;;;;;;17.70;12.13;;;4.50;99.90;;;;;;5090262;28;20637;-47
2022/03/23 04:56:00;;;;;;;24.03;12.80;;;4.50;99.90;;;;;;5079852;28;20644;-45
2022/03/23 04:58:27;;;;;;;27.13;12.57;;;4.40;99.90;;;;;;5076270;28;20609;-49
2022/03/23 05:00:54;;;;;;;17.33;11.23;;;4.40;99.90;;;;;;5080210;28;20204;-48
2022/03/23 05:03:21;;;;;;;19.60;12.80;;;4.40;99.90;;;;;;5076256;28;20303;-42
2022/03/23 05:05:48;;;;;;;18.13;11.33;;;4.30;99.90;;;;;;5074775;28;20223;-42
2022/03/23 05:08:15;;;;;;;15.70;10.57;;;4.30;99.90;;;;;;5088490;28;20203;-43
2022/03/23 05:10:42;;;;;;;22.63;11.70;;;4.20;99.90;;;;;;5078410;27;20310;-49
2022/03/23 05:13:11;;;;;;;17.50;12.03;;;4.30;99.90;;;;;;5078670;28;20516;-44
2022/03/23 05:15:38;;;;;;;19.80;12.40;;;4.30;99.90;;;;;;5091879;27;20236;-46
2022/03/23 05:18:06;;;;;;;21.10;12.97;;;4.20;99.90;;;;;;5070519;28;20207;-44
2022/03/23 05:20:33;;;;;;;18.47;11.83;;;4.20;99.90;;;;;;5095235;27;20203;-46
2022/03/23 05:23:00;;;;;;;19.07;11.67;;;4.30;99.90;;;;;;5096768;28;20538;-45
2022/03/23 05:25:27;;;;;;;19.67;12.47;;;4.30;99.90;;;;;;5086840;27;20234;-46
2022/03/23 05:27:54;;;;;;;17.27;11.97;;;4.20;99.90;;;;;;5075205;27;20649;-44
2022/03/23 05:30:22;;;;;;;18.20;11.77;;;4.20;99.90;;;;;;5097793;28;20231;-45
2022/03/23 05:32:49;;;;;;;19.50;12.23;;;4.30;99.90;;;;;;5082943;28;20318;-44
2022/03/23 05:35:17;;;;;;;22.50;13.17;;;4.40;99.90;;;;;;5081485;27;20282;-45
2022/03/23 05:37:44;;;;;;;18.70;12.70;;;4.40;99.90;;;;;;5078497;27;21112;-44
2022/03/23 05:40:11;;;;;;;21.90;11.73;;;4.40;99.90;;;;;;5090786;27;20283;-46
2022/03/23 05:42:39;;;;;;;15.37;11.57;;;4.50;99.90;;;;;;5075423;28;20230;-44
2022/03/23 05:45:07;;;;;;;24.90;12.17;;;4.60;99.90;;;;;;5056558;28;20234;-44
2022/03/23 05:47:36;;;;;;;28.13;12.27;;;4.60;99.90;;;;;;5072724;28;20513;-44
2022/03/23 05:50:04;;;;;;;22.70;13.80;;;4.70;99.90;;;;;;5074015;28;20531;-46
2022/03/23 05:52:31;;;;;;;19.53;13.20;;;4.80;99.90;;;;;;5079003;27;20571;-44
2022/03/23 05:54:58;;;;;;;18.77;12.87;;;4.90;99.90;;;;;;5088438;28;20513;-44
2022/03/23 05:57:24;;;;;;;18.37;12.37;;;4.90;99.90;;;;;;5085170;27;20383;-44
2022/03/23 05:59:51;;;;;;;18.37;12.10;;;5.00;99.90;;;;;;5074725;28;20219;-43
2022/03/23 06:02:18;;;;;;;18.20;11.60;;;4.90;99.90;;;;;;5086488;28;20527;-46
2022/03/23 06:04:46;;;;;;;17.53;12.13;;;4.80;99.90;;;;;;5085238;27;20470;-49
2022/03/23 06:07:13;;;;;;;21.27;12.13;;;4.80;99.90;;;;;;5073823;28;20223;-45
2022/03/23 06:09:40;;;;;;;21.47;12.93;;;4.90;99.90;;;;;;5096789;27;20235;-48
2022/03/23 06:12:11;;;;;;;18.57;10.93;;;4.80;99.90;;;;;;5086188;27;20931;-47
2022/03/23 06:14:38;;;;;;;28.63;12.10;;;4.70;99.90;;;;;;5078546;27;20494;-46
2022/03/23 06:17:06;;;;;;;17.33;10.40;;;4.70;99.90;;;;;;5082315;27;20203;-49
2022/03/23 06:19:33;;;;;;;17.03;10.37;;;4.80;99.90;;;;;;5077573;28;20204;-46
2022/03/23 06:22:01;;;;;;;18.03;10.40;;;4.80;99.90;;;;;;5062472;28;20203;-45
2022/03/23 06:24:29;;;;;;;14.43;10.13;;;4.80;99.90;;;;;;5098922;27;20223;-44
2022/03/23 06:26:55;;;;;;;22.27;10.37;;;4.70;99.90;;;;;;5090884;27;20231;-49
2022/03/23 06:29:22;;;;;;;15.60;9.80;;;4.60;99.90;;;;;;5105972;28;20257;-45
2022/03/23 06:31:49;;;;;;;17.63;10.30;;;4.60;99.90;;;;;;5083810;28;20208;-49
2022/03/23 06:34:16;;;;;;;17.70;11.10;;;4.50;99.90;;;;;;5090905;28;20230;-45
2022/03/23 06:36:43;;;;;;;15.23;10.23;;;4.50;99.90;;;;;;5098731;27;20246;-47
2022/03/23 06:39:11;;;;;;;16.53;10.20;;;4.60;99.90;;;;;;5080076;28;20267;-43
2022/03/23 06:41:38;;;;;;;20.30;10.97;;;4.60;99.90;;;;;;5091743;27;20443;-49
2022/03/23 06:44:05;;;;;;;18.43;10.27;;;4.80;99.90;;;;;;5087798;27;20294;-43
2022/03/23 06:46:32;;;;;;;22.17;10.93;;;4.80;99.90;;;;;;5080533;27;20219;-48
2022/03/23 06:48:59;;;;;;;19.63;11.30;;;4.90;99.90;;;;;;5088104;28;20443;-43
2022/03/23 06:51:26;;;;;;;21.33;11.07;;;5.00;99.90;;;;;;5087301;27;20235;-45
2022/03/23 06:53:53;;;;;;;14.60;10.43;;;5.20;99.90;;;;;;5096531;27;20374;-45
2022/03/23 06:56:21;;;;;;;14.47;10.33;;;5.40;99.90;;;;;;5100123;28;20558;-44
2022/03/23 06:58:48;;;;;;;14.27;10.73;;;5.60;99.90;;;;;;5087643;27;20288;-45
2022/03/23 07:01:15;;;;;;;15.70;10.67;;;5.70;99.90;;;;;;5079155;28;20304;-44
2022/03/23 07:03:42;;;;;;;16.70;10.93;;;6.00;99.90;;;;;;5099040;27;20229;-45
2022/03/23 07:06:09;;;;;;;18.77;10.80;;;6.10;99.90;;;;;;5081491;28;20255;-44
2022/03/23 07:11:22;;;;;;;15.97;10.03;;;6.40;99.90;;;;;;5096054;27;20465;-45
2022/03/23 07:13:48;;;;;;;14.70;10.00;;;6.70;99.90;;;;;;5092938;28;20297;-46
2022/03/23 07:16:15;;;;;;;13.67;9.70;;;6.80;99.90;;;;;;5090832;28;20200;-44
2022/03/23 07:18:42;;;;;;;15.83;10.70;;;7.00;99.90;;;;;;5086839;28;20553;-46
2022/03/23 07:21:10;;;;;;;18.37;10.30;;;7.10;99.90;;;;;;5094827;27;20364;-45
2022/03/23 07:23:37;;;;;;;17.97;11.30;;;7.20;99.90;;;;;;5094039;28;20227;-46
2022/03/23 07:26:04;;;;;;;16.80;11.20;;;7.30;99.90;;;;;;5097635;27;20224;-45
2022/03/23 07:28:33;;;;;;;14.03;10.37;;;7.40;99.90;;;;;;5101810;28;20538;-44
2022/03/23 07:31:00;;;;;;;15.73;11.57;;;7.50;99.90;;;;;;5085102;27;20199;-45
2022/03/23 07:33:28;;;;;;;16.63;11.80;;;7.70;99.90;;;;;;5078625;27;20235;-44
2022/03/23 07:35:55;;;;;;;22.03;11.37;;;7.80;99.90;;;;;;5097223;28;20368;-44
2022/03/23 07:38:22;;;;;;;16.97;11.53;;;7.80;99.90;;;;;;5094848;28;20221;-45
2022/03/23 07:40:49;;;;;;;15.70;10.93;;;8.00;99.90;;;;;;5097302;28;20273;-49
2022/03/23 07:43:16;;;;;;;15.63;10.37;;;8.00;99.90;;;;;;5099912;27;20235;-45
2022/03/23 07:45:45;;;;;;;16.10;11.63;;;8.10;99.90;;;;;;5096640;28;20207;-49
2022/03/23 07:48:12;;;;;;;20.80;12.17;;;8.20;99.90;;;;;;5079874;28;20627;-44
2022/03/23 07:50:39;;;;;;;17.90;12.00;;;8.30;99.90;;;;;;5102388;27;20208;-48
2022/03/23 07:53:05;;;;;;;17.57;11.27;;;8.40;99.90;;;;;;5092720;27;20457;-44
2022/03/23 07:55:32;;;;;;;18.73;11.57;;;8.50;99.90;;;;;;5101782;28;20204;-47
2022/03/23 07:57:59;;;;;;;21.90;10.87;;;8.50;99.90;;;;;;5086260;27;20223;-45
2022/03/23 08:00:26;;;;;;;14.53;10.73;;;8.60;99.90;;;;;;5097003;28;20196;-44
2022/03/23 08:02:54;;;;;;;14.80;10.27;;;8.70;99.90;;;;;;5088246;27;20336;-45
2022/03/23 08:05:21;;;;;;;16.83;11.13;;;8.80;99.90;;;;;;5070887;28;20211;-44
2022/03/23 08:07:48;;;;;;;15.37;10.63;;;8.90;99.90;;;;;;5079226;27;20231;-44
2022/03/23 08:10:15;;;;;;;14.47;10.37;;;8.90;99.90;;;;;;5085759;27;20211;-45
2022/03/23 08:12:42;;;;;;;15.90;10.80;;;9.00;99.90;;;;;;5081777;28;20610;-46
2022/03/23 08:15:10;;;;;;;16.37;10.07;;;9.10;99.90;;;;;;5093804;28;20232;-45
2022/03/23 08:17:38;;;;;;;14.60;9.97;;;9.10;99.90;;;;;;5094646;28;20199;-46
2022/03/23 08:22:52;;;;;;;15.60;11.07;;;9.20;99.90;;;;;;5070046;28;27404;-45
2022/03/23 08:25:20;;;;;;;15.57;10.70;;;9.30;99.90;;;;;;5088734;28;20318;-45
2022/03/23 08:27:47;;;;;;;18.90;10.80;;;9.50;99.90;;;;;;5081429;28;20219;-46
2022/03/23 08:30:14;;;;;;;14.20;10.57;;;9.60;99.90;;;;;;5088936;28;20244;-45
2022/03/23 08:32:41;;;;;;;15.57;10.87;;;9.70;99.90;;;;;;5092132;28;20548;-46
2022/03/23 08:35:10;;;;;;;15.47;10.67;;;9.80;99.90;;;;;;5078550;28;20659;-45
2022/03/23 08:37:38;;;;;;;15.60;11.10;;;9.90;99.90;;;;;;5100303;28;20238;-46
2022/03/23 08:40:06;;;;;;;15.05;10.77;;;10.00;99.90;;;;;;5086192;28;20203;-46
2022/03/23 08:42:33;;;;;;;13.82;10.02;;;10.10;99.90;;;;;;5090308;28;20274;-44
2022/03/23 08:45:00;;;;;;;15.90;11.15;;;10.10;99.90;;;;;;5095272;28;20509;-46
2022/03/23 08:47:27;;;;;;;16.20;10.98;;;10.10;99.90;;;;;;5095128;28;20227;-44
2022/03/23 08:49:55;;;;;;;13.93;10.88;;;10.30;99.90;;;;;;5076872;28;20448;-46
2022/03/23 08:52:24;;;;;;;14.23;10.67;;;10.40;99.90;;;;;;5096347;28;20543;-45
2022/03/23 08:54:51;;;;;;;15.68;10.60;;;10.50;99.90;;;;;;5085315;28;20602;-42
2022/03/23 08:57:18;;;;;;;12.20;9.60;;;10.50;99.90;;;;;;5096163;27;20203;-43
2022/03/23 08:59:45;;;;;;;15.32;11.35;;;10.70;99.90;;;;;;5094385;28;20322;-47
2022/03/23 09:02:12;;;;;;;15.05;9.32;;;10.70;99.90;;;;;;5097540;28;20474;-44
2022/03/23 09:04:39;;;;;;;15.85;10.30;;;10.90;99.90;;;;;;5099358;28;20295;-49
2022/03/23 09:07:06;;;;;;;12.82;9.10;;;11.10;99.90;;;;;;5084327;28;20326;-47
2022/03/23 09:09:34;;;;;;;13.77;10.27;;;11.20;99.90;;;;;;5091617;28;20234;-46
2022/03/23 09:12:01;;;;;;;13.98;9.98;;;11.30;99.90;;;;;;5076045;28;20294;-44
2022/03/23 09:14:28;;;;;;;14.35;10.27;;;11.40;99.90;;;;;;5086099;28;20492;-46
2022/03/23 09:16:55;;;;;;;13.88;9.65;;;11.40;99.90;;;;;;5088975;28;20274;-46
2022/03/23 09:19:22;;;;;;;14.20;9.90;;;11.50;99.90;;;;;;5086568;28;20203;-46
2022/03/23 09:21:49;;;;;;;14.60;10.27;;;11.50;99.90;;;;;;5075939;28;20299;-50
2022/03/23 09:24:19;;;;;;;11.88;9.82;;;11.60;99.90;;;;;;5094660;28;20228;-46
2022/03/23 09:26:47;;;;;;;11.55;9.07;;;11.90;99.90;;;;;;5078689;28;20223;-44
2022/03/23 09:29:15;;;;;;;13.35;9.45;;;11.80;99.90;;;;;;5090279;28;20407;-44
2022/03/23 09:31:42;;;;;;;14.63;9.93;;;11.80;99.90;;;;;;5093756;28;20207;-46
2022/03/23 09:34:09;;;;;;;16.17;10.23;;;11.80;99.90;;;;;;5098759;28;20227;-45
2022/03/23 09:39:21;;;;;;;12.55;9.80;;;12.00;99.90;;;;;;5098336;28;20226;-46
2022/03/23 09:41:49;;;;;;;17.73;9.73;;;12.30;99.90;;;;;;5078696;28;20231;-45
2022/03/23 09:44:17;;;;;;;15.13;10.30;;;12.20;99.90;;;;;;5091503;28;20286;-46
2022/03/23 09:46:44;;;;;;;12.70;9.32;;;12.30;99.90;;;;;;5094799;28;20228;-45
2022/03/23 09:49:11;;;;;;;12.52;9.45;;;12.30;99.90;;;;;;5094551;28;20336;-46
2022/03/23 09:51:40;;;;;;;11.43;9.13;;;12.60;99.90;;;;;;5082899;28;20204;-45
2022/03/23 09:54:08;;;;;;;13.98;10.30;;;12.60;99.90;;;;;;5099799;27;20550;-46
2022/03/23 09:56:35;;;;;;;16.38;10.43;;;12.70;99.90;;;;;;5097554;27;20203;-45
2022/03/23 09:59:06;;;;;;;12.35;9.75;;;12.80;99.90;;;;;;5087930;28;20600;-45
2022/03/23 10:02:13;;;;;;;17.40;10.00;;;12.90;99.90;;;;;;5104352;28;20234;-45
2022/03/23 10:05:12;;;;;;;13.90;9.77;;;12.90;99.90;;;;;;5102661;28;20225;-46
2022/03/23 10:07:47;;;;;;;14.05;10.90;;;12.90;99.90;;;;;;5059672;28;20215;-45
2022/03/23 10:11:13;;;;;;;14.63;9.75;;;12.90;99.90;;;;;;5097030;28;20381;-45
2022/03/23 10:14:17;;;;;;;13.95;9.57;;;13.20;99.20;;;;;;5091981;28;20227;-46
2022/03/23 10:17:32;;;;;;;13.95;10.50;;;13.20;99.40;;;;;;5058447;28;20210;-45
2022/03/23 10:20:00;;;;;;;17.73;10.00;;;13.20;99.90;;;;;;5097865;28;20235;-47
2022/03/23 10:22:28;;;;;;;13.52;9.52;;;13.40;97.80;;;;;;5099373;27;20196;-45
2022/03/23 10:24:55;;;;;;;11.75;9.70;;;13.40;99.30;;;;;;5063793;27;20455;-46
2022/03/23 10:27:25;;;;;;;11.63;9.63;;;13.50;97.80;;;;;;5092559;27;20539;-46
2022/03/23 10:29:53;;;;;;;10.85;8.80;;;13.60;97.80;;;;;;5087119;28;20625;-46
2022/03/23 10:32:21;;;;;;;13.23;9.65;;;13.50;97.80;;;;;;5094559;27;20578;-45
2022/03/23 10:34:50;;;;;;;17.13;10.10;;;13.70;97.80;;;;;;5093057;28;20618;-46
2022/03/23 10:37:24;;;;;;;15.65;9.70;;;13.80;98.80;;;;;;5098251;27;20207;-46
2022/03/23 10:39:51;;;;;;;11.95;9.07;;;13.80;97.80;;;;;;5080669;27;20427;-47
2022/03/23 10:42:20;;;;;;;14.02;8.85;;;13.80;97.70;;;;;;5094610;27;20204;-47
2022/03/23 10:44:48;;;;;;;13.57;8.40;;;13.70;98.20;;;;;;5092308;27;20411;-47
2022/03/23 10:47:32;;;;;;;12.07;8.80;;;13.70;98.50;;;;;;5096216;28;20535;-46
2022/03/23 10:50:07;;;;;;;11.68;8.55;;;13.80;98.80;;;;;;5100599;27;20264;-45
2022/03/23 10:52:34;;;;;;;10.43;8.13;;;13.80;96.90;;;;;;5093327;28;20203;-46
2022/03/23 10:55:05;;;;;;;10.85;8.23;;;13.80;98.00;;;;;;5087041;27;20554;-46
2022/03/23 10:58:09;;;;;;;13.82;8.75;;;13.80;97.70;;;;;;5098318;28;20510;-45
2022/03/23 11:00:38;;;;;;;11.70;8.23;;;13.80;98.70;;;;;;5083659;27;20293;-47
2022/03/23 11:03:08;;;;;;;13.68;8.90;;;13.90;98.50;;;;;;5091769;28;20247;-46
2022/03/23 11:05:37;;;;;;;12.27;8.15;;;13.90;99.90;;;;;;5096742;27;20433;-46
2022/03/23 11:08:09;;;;;;;12.35;8.90;;;14.00;99.30;;;;;;5098884;27;20299;-46
2022/03/23 11:16:10;;;;;;;18.45;8.98;;;14.10;99.70;;;;;;5088315;27;20210;-46
2022/03/23 11:18:39;;;;;;;17.48;8.88;;;14.10;99.90;;;;;;5092688;28;20274;-46
2022/03/23 11:21:08;;;;;;;16.92;9.80;;;14.10;99.90;;;;;;5087973;27;20231;-46
2022/03/23 11:23:36;;;;;;;12.98;9.13;;;14.40;98.70;;;;;;5098739;27;20527;-48
2022/03/23 11:26:05;;;;;;;12.40;8.73;;;14.30;99.90;;;;;;5083520;27;20211;-45
2022/03/23 11:28:35;;;;;;;13.48;9.10;;;14.30;99.90;;;;;;5097024;27;20219;-47
2022/03/23 11:31:04;;;;;;;15.60;9.25;;;14.20;99.90;;;;;;5073358;28;20823;-46
2022/03/23 11:33:34;;;;;;;19.85;9.60;;;14.30;99.90;;;;;;5098357;27;20243;-45
2022/03/23 11:36:04;;;;;;;12.60;9.70;;;14.30;99.90;;;;;;5100396;27;20512;-46
2022/03/23 11:38:33;;;;;;;12.95;8.38;;;14.40;99.90;;;;;;5101154;27;20230;-45
2022/03/23 11:41:01;;;;;;;14.02;10.43;;;14.30;99.90;;;;;;5082510;28;20601;-45
2022/03/23 11:43:30;;;;;;;17.95;9.38;;;14.40;99.90;;;;;;5102944;27;20391;-46
2022/03/23 11:45:58;;;;;;;14.27;9.00;;;14.50;99.90;;;;;;5084782;27;20215;-47
2022/03/23 11:48:42;;;;;;;14.18;9.57;;;14.50;99.90;;;;;;5097924;27;20554;-46
2022/03/23 11:51:55;;;;;;;13.57;9.82;;;14.60;99.90;;;;;;5098118;27;20207;-46
2022/03/23 11:55:36;;;;;;;16.20;9.70;;;14.60;99.90;;;;;;5099042;27;20223;-46
2022/03/23 11:57:18;;;;;;;13.93;9.75;;;14.70;99.00;;;;;;5082750;27;20208;-45
2022/03/23 11:59:45;;;;;;;16.38;10.13;;;14.70;98.20;;;;;;5099824;27;20459;-47
2022/03/23 12:02:12;;;;;;;14.25;9.07;;;14.70;99.00;;;;;;5096103;28;20450;-45
2022/03/23 12:04:39;;;;;;;15.05;9.32;;;14.70;99.30;;;;;;5098047;28;20239;-47
2022/03/23 12:07:08;;;;;;;15.35;9.80;;;14.90;98.40;;;;;;5097084;28;20270;-45
2022/03/23 12:09:38;;;;;;;14.40;9.20;;;15.00;97.20;;;;;;5098051;28;20188;-46
2022/03/23 12:12:06;;;;;;;16.23;8.95;;;14.90;98.40;;;;;;5092510;28;20515;-46
2022/03/23 12:14:35;;;;;;;14.73;8.95;;;15.00;97.30;;;;;;5084563;28;20310;-45
2022/03/23 12:17:13;;;;;;;15.75;8.57;;;15.10;96.80;;;;;;5085625;28;20231;-47
2022/03/23 12:20:02;;;;;;;16.60;8.88;;;15.00;99.00;;;;;;5096178;28;20223;-49
2022/03/23 12:22:59;;;;;;;17.38;8.55;;;15.00;97.80;;;;;;5098275;28;20263;-43
2022/03/23 12:25:41;;;;;;;18.77;9.05;;;15.00;97.70;;;;;;5070990;28;20201;-45
2022/03/23 12:28:26;;;;;;;11.82;8.40;;;15.10;98.70;;;;;;5090005;28;20584;-50
2022/03/23 12:31:10;;;;;;;18.10;8.98;;;15.10;98.80;;;;;;5098025;28;20232;-44
2022/03/23 12:34:11;;;;;;;12.73;7.78;;;15.00;98.70;;;;;;5072995;28;20516;-46
2022/03/23 12:36:59;;;;;;;15.45;7.30;;;15.00;98.40;;;;;;5086975;28;20456;-46
2022/03/23 12:39:39;;;;;;;13.80;8.32;;;15.10;99.20;;;;;;5067732;28;20199;-46
2022/03/23 12:42:40;;;;;;;13.40;8.20;;;15.20;98.60;;;;;;5085384;28;20213;-49
2022/03/23 12:45:13;;;;;;;13.27;8.05;;;15.30;98.60;;;;;;5025477;28;20219;-49
2022/03/23 12:47:52;;;;;;;20.27;8.15;;;15.40;97.50;;;;;;5073890;28;20231;-46
2022/03/23 12:58:49;;;;;;;12.93;7.70;;;15.40;97.40;;;;;;5089616;28;20969;-46
2022/03/23 13:01:18;;;;;;;15.40;8.50;;;15.50;97.10;;;;;;5056057;28;20210;-47
2022/03/23 13:03:55;;;;;;;23.15;7.63;;;15.50;97.20;;;;;;5081092;28;20418;-46
2022/03/23 13:06:33;;;;;;;14.52;7.68;;;15.60;98.40;;;;;;5091833;28;20223;-45
2022/03/23 13:09:00;;;;;;;11.30;7.07;;;15.60;96.80;;;;;;5086797;28;20219;-47
2022/03/23 13:11:29;;;;;;;12.82;7.90;;;15.50;97.10;;;;;;5071377;28;20303;-46
2022/03/23 13:13:59;;;;;;;14.80;8.68;;;15.60;96.80;;;;;;5085558;28;20266;-47
2022/03/23 13:16:28;;;;;;;14.55;8.02;;;15.60;97.20;;;;;;5080438;28;20207;-46
2022/03/23 13:18:56;;;;;;;14.77;7.70;;;15.60;97.90;;;;;;5083749;28;20263;-46